Time;durP1;ratioP1;P1;durP2;ratioP2;P2;SDS_P1;SDS_P2;PMS_P1;PMS_P2;Temp;Humidity;BMP_temperature;BMP_pressure;BME280_temperature;BME280_humidity;BME280_pressure;Samples;Min_cycle;Max_cycle;Signal;HPM_P1;HPM_P2
2022/01/03 00:00:31;;;;;;;4.95;1.60;;;;;;;7.93;100.00;93278.84;2095930;28;20611;-83
2022/01/03 00:01:34;;;;;;;7.32;1.77;;;;;;;7.78;100.00;93286.94;2100168;28;20032;-83
2022/01/03 00:02:36;;;;;;;6.60;2.67;;;;;;;7.79;100.00;93277.81;2098696;28;20022;-83
2022/01/03 00:03:38;;;;;;;7.60;1.60;;;;;;;7.77;100.00;93284.66;2090630;28;20028;-83
2022/01/03 00:04:50;;;;;;;5.68;1.55;;;;;;;7.66;100.00;93282.09;2106494;28;20614;-83
2022/01/03 00:05:51;;;;;;;2.42;1.27;;;;;;;7.56;100.00;93289.03;2112773;28;20490;-83
2022/01/03 00:14:42;;;;;;;5.68;1.63;;;;;;;7.87;100.00;93283.09;2103807;28;20036;-83
2022/01/03 00:15:43;;;;;;;9.45;1.73;;;;;;;7.88;100.00;93285.34;2090018;28;20059;-84
2022/01/03 00:16:43;;;;;;;4.85;1.30;;;;;;;7.97;100.00;93264.34;2090196;28;20021;-84
2022/01/03 00:17:48;;;;;;;6.50;1.63;;;;;;;8.04;100.00;93266.94;2089973;28;20098;-82
2022/01/03 00:18:56;;;;;;;5.63;1.45;;;;;;;7.93;100.00;93274.25;2084661;28;20526;-85
2022/01/03 00:20:04;;;;;;;2.58;1.23;;;;;;;7.75;100.00;93277.09;2082468;28;20124;-84
2022/01/03 00:21:19;;;;;;;5.65;1.83;;;;;;;7.90;100.00;93279.63;2089602;28;20444;-83
2022/01/03 00:22:26;;;;;;;6.28;1.52;;;;;;;7.97;100.00;93267.00;2085648;28;20512;-83
2022/01/03 00:23:38;;;;;;;8.10;1.48;;;;;;;7.94;100.00;93277.69;2086874;28;20025;-83
2022/01/03 00:24:50;;;;;;;3.20;1.40;;;;;;;7.94;100.00;93278.44;2083175;28;20382;-84
2022/01/03 00:26:16;;;;;;;3.88;1.30;;;;;;;7.94;100.00;93281.09;2091739;28;20096;-84
2022/01/03 00:27:23;;;;;;;8.50;1.52;;;;;;;7.75;100.00;93276.34;2089933;28;20441;-84
2022/01/03 00:28:57;;;;;;;4.22;1.20;;;;;;;7.72;100.00;93283.19;2083375;28;20040;-81
2022/01/03 00:30:00;;;;;;;7.55;1.60;;;;;;;7.79;100.00;93283.13;2086238;28;20029;-82
2022/01/03 00:31:03;;;;;;;2.42;1.20;;;;;;;7.84;100.00;93284.63;2082341;28;20022;-82
2022/01/03 00:32:08;;;;;;;7.63;1.60;;;;;;;7.85;100.00;93280.78;2082001;28;20032;-82
2022/01/03 00:33:10;;;;;;;6.90;1.63;;;;;;;7.86;100.00;93289.53;2074504;28;20101;-83
2022/01/03 00:34:14;;;;;;;5.53;1.33;;;;;;;7.64;100.00;93271.09;2090099;28;20056;-84
2022/01/03 00:35:15;;;;;;;4.35;1.40;;;;;;;7.67;100.00;93277.53;2090108;28;20021;-82
2022/01/03 00:36:19;;;;;;;9.50;1.52;;;;;;;7.79;100.00;93277.06;2081972;28;20022;-83
2022/01/03 00:37:24;;;;;;;6.88;1.88;;;;;;;7.71;100.00;93270.28;2082063;28;20025;-84
2022/01/03 00:38:28;;;;;;;7.45;1.85;;;;;;;7.80;100.00;93281.97;2082855;28;20120;-84
2022/01/03 00:39:31;;;;;;;6.40;1.42;;;;;;;7.83;100.00;93273.22;2082119;28;20025;-82
2022/01/03 00:40:32;;;;;;;9.27;1.95;;;;;;;7.79;100.00;93299.09;2081935;28;20577;-83
2022/01/03 00:41:37;;;;;;;7.65;2.50;;;;;;;7.89;100.00;93281.53;2089883;28;20032;-83
2022/01/03 00:42:40;;;;;;;4.22;1.20;;;;;;;8.02;100.00;93289.78;2098121;28;20027;-83
2022/01/03 00:43:42;;;;;;;8.43;1.90;;;;;;;7.93;100.00;93284.91;2089866;28;20025;-84
2022/01/03 00:44:46;;;;;;;10.35;1.77;;;;;;;7.97;100.00;93293.63;2081976;28;20096;-84
2022/01/03 00:45:52;;;;;;;4.25;1.42;;;;;;;8.07;100.00;93281.34;2090401;28;20490;-83
2022/01/03 00:46:57;;;;;;;9.63;2.08;;;;;;;8.01;100.00;93286.38;2082304;28;20060;-83
2022/01/03 00:47:58;;;;;;;4.95;2.50;;;;;;;7.87;100.00;93289.16;2082215;28;20029;-83
2022/01/03 00:49:01;;;;;;;5.78;1.42;;;;;;;7.83;100.00;93283.09;2073382;28;20030;-83
2022/01/03 00:50:15;;;;;;;5.57;1.50;;;;;;;7.87;100.00;93286.50;2070730;28;20053;-83
2022/01/03 00:51:19;;;;;;;5.88;1.48;;;;;;;7.93;100.00;93279.59;2085252;28;20040;-84
2022/01/03 00:52:24;;;;;;;6.70;1.45;;;;;;;7.83;100.00;93291.09;2081985;28;20441;-84
2022/01/03 00:53:25;;;;;;;5.63;1.52;;;;;;;7.81;100.00;93294.16;2090443;28;20082;-83
2022/01/03 00:54:26;;;;;;;6.50;1.67;;;;;;;7.78;100.00;93296.84;2089889;28;20501;-82
2022/01/03 00:55:27;;;;;;;7.18;1.48;;;;;;;7.75;100.00;93303.69;2089839;28;20032;-83
2022/01/03 00:56:35;;;;;;;3.83;1.60;;;;;;;7.74;100.00;93286.22;2089495;28;20057;-85
2022/01/03 00:58:02;;;;;;;9.05;2.20;;;;;;;7.60;100.00;93296.97;2089890;28;20343;-83
2022/01/03 00:59:03;;;;;;;5.88;1.80;;;;;;;7.75;100.00;93281.66;2098373;28;20451;-83
2022/01/03 01:00:06;;;;;;;7.88;1.77;;;;;;;7.81;100.00;93288.84;2098111;28;20024;-83
2022/01/03 01:01:08;;;;;;;6.00;1.60;;;;;;;7.70;100.00;93295.38;2090197;28;20083;-82
2022/01/03 01:02:11;;;;;;;6.05;1.50;;;;;;;7.72;100.00;93283.19;2081407;28;20540;-85
2022/01/03 01:03:21;;;;;;;4.78;1.40;;;;;;;7.67;100.00;93290.84;2082472;28;20029;-82
2022/01/03 01:04:23;;;;;;;8.90;1.70;;;;;;;7.64;100.00;93292.41;2087581;28;20048;-83
2022/01/03 01:05:25;;;;;;;6.20;1.42;;;;;;;7.55;100.00;93298.16;2081648;28;20704;-84
2022/01/03 01:06:26;;;;;;;5.93;1.45;;;;;;;7.59;100.00;93295.44;2089805;28;20052;-83
2022/01/03 01:07:30;;;;;;;3.35;1.30;;;;;;;7.55;100.00;93289.41;2085018;28;20051;-82
2022/01/03 01:08:34;;;;;;;8.48;1.73;;;;;;;7.63;100.00;93288.19;2073664;28;20029;-82
2022/01/03 01:09:35;;;;;;;4.95;1.60;;;;;;;7.61;100.00;93292.41;2081449;28;20029;-82
2022/01/03 01:10:39;;;;;;;7.32;2.30;;;;;;;7.62;100.00;93281.38;2081809;28;20457;-84
2022/01/03 01:11:43;;;;;;;4.35;1.42;;;;;;;7.48;100.00;93292.88;2085815;28;20024;-82
2022/01/03 01:12:46;;;;;;;8.38;2.10;;;;;;;7.62;100.00;93292.00;2090129;28;20036;-82
2022/01/03 01:13:47;;;;;;;6.15;1.77;;;;;;;7.49;100.00;93296.28;2090863;28;20040;-84
2022/01/03 01:14:50;;;;;;;7.50;1.98;;;;;;;7.55;100.00;93295.50;2090557;28;20037;-83
2022/01/03 01:15:51;;;;;;;5.05;1.70;;;;;;;7.59;100.00;93287.47;2090422;28;20028;-82
2022/01/03 01:16:52;;;;;;;7.35;1.50;;;;;;;7.44;100.00;93291.41;2103132;28;20568;-85
2022/01/03 01:18:03;;;;;;;4.80;1.65;;;;;;;7.64;100.00;93281.75;2097805;28;20024;-85
2022/01/03 01:19:05;;;;;;;7.25;1.45;;;;;;;7.72;100.00;93296.47;2092766;28;20048;-83
2022/01/03 01:20:08;;;;;;;10.10;1.92;;;;;;;7.77;100.00;93287.31;2089902;28;20059;-83
2022/01/03 01:21:09;;;;;;;10.38;2.15;;;;;;;7.74;100.00;93278.25;2090180;28;20017;-84
2022/01/03 01:22:11;;;;;;;4.68;1.70;;;;;;;7.58;100.00;93277.97;2097799;28;20029;-84
2022/01/03 01:23:12;;;;;;;4.13;1.83;;;;;;;7.52;100.00;93282.97;2097819;28;20028;-83
2022/01/03 01:24:15;;;;;;;8.38;2.10;;;;;;;7.57;100.00;93289.78;2098141;28;20029;-82
2022/01/03 01:27:49;;;;;;;6.30;1.88;;;;;;;7.63;100.00;93271.47;2111090;28;20483;-84
2022/01/03 01:28:50;;;;;;;8.55;1.60;;;;;;;7.74;100.00;93290.78;2114521;28;20080;-83
2022/01/03 01:29:51;;;;;;;5.72;1.92;;;;;;;7.70;100.00;93285.50;2106222;28;20054;-83
2022/01/03 01:30:54;;;;;;;10.45;1.80;;;;;;;7.57;100.00;93293.19;2114451;28;20022;-83
2022/01/03 01:32:01;;;;;;;5.85;1.70;;;;;;;7.58;100.00;93288.63;2106556;28;20532;-84
2022/01/03 01:33:16;;;;;;;6.43;1.75;;;;;;;7.62;100.00;93296.59;2114689;28;20102;-83
2022/01/03 01:34:26;;;;;;;10.23;1.92;;;;;;;7.66;100.00;93295.41;2108321;28;20031;-82
2022/01/03 01:35:42;;;;;;;;;;;;;;;7.55;100.00;93276.09;2107985;28;20716;-85
2022/01/03 01:36:45;;;;;;;5.10;1.67;;;;;;;7.64;100.00;93288.94;2106088;28;20498;-83
2022/01/03 01:37:52;;;;;;;4.78;1.33;;;;;;;7.62;100.00;93283.28;2090210;28;20029;-82
2022/01/03 01:39:04;;;;;;;8.75;1.92;;;;;;;7.68;100.00;93293.13;2099497;28;20550;-83
2022/01/03 01:40:06;;;;;;;6.60;1.70;;;;;;;7.58;100.00;93283.31;2107605;28;20098;-83
2022/01/03 01:41:08;;;;;;;9.05;1.45;;;;;;;7.65;100.00;93293.91;2097718;28;20026;-83
2022/01/03 01:42:13;;;;;;;5.80;1.83;;;;;;;7.53;100.00;93276.50;2089642;28;20104;-83
2022/01/03 01:43:28;;;;;;;8.30;1.60;;;;;;;7.64;100.00;93294.28;2090581;28;20704;-82
2022/01/03 01:44:32;;;;;;;7.57;1.73;;;;;;;7.54;100.00;93280.66;2099771;28;20033;-84
2022/01/03 01:45:33;;;;;;;11.30;2.50;;;;;;;7.65;100.00;93288.56;2089826;28;20470;-83
2022/01/03 01:46:43;;;;;;;4.97;1.85;;;;;;;7.66;100.00;93276.03;2081417;28;20025;-84
2022/01/03 01:47:47;;;;;;;7.10;1.83;;;;;;;7.49;100.00;93267.78;2092131;28;20363;-84
2022/01/03 01:48:50;;;;;;;9.55;1.45;;;;;;;7.46;100.00;93271.25;2098188;28;20032;-82
2022/01/03 01:49:53;;;;;;;5.65;1.67;;;;;;;7.61;100.00;93285.19;2090014;28;20025;-83
2022/01/03 01:50:59;;;;;;;4.40;1.55;;;;;;;7.61;100.00;93287.09;2095851;28;20020;-83
2022/01/03 01:52:02;;;;;;;3.83;1.65;;;;;;;7.61;100.00;93282.53;2098303;28;20089;-86
2022/01/03 01:53:05;;;;;;;8.98;2.45;;;;;;;7.62;100.00;93275.28;2089986;28;20021;-83
2022/01/03 01:54:08;;;;;;;7.22;1.48;;;;;;;7.68;100.00;93279.03;2090208;28;20112;-83
2022/01/03 01:55:12;;;;;;;3.25;1.52;;;;;;;7.69;100.00;93269.94;2106377;28;20024;-82
2022/01/03 01:56:17;;;;;;;4.50;1.35;;;;;;;7.74;100.00;93275.56;2105962;28;20522;-83
2022/01/03 01:57:19;;;;;;;8.18;1.45;;;;;;;7.72;100.00;93272.53;2098959;28;20138;-83
2022/01/03 01:58:23;;;;;;;6.55;1.52;;;;;;;7.93;100.00;93276.94;2106134;28;20043;-82
2022/01/03 01:59:57;;;;;;;8.60;2.17;;;;;;;7.85;100.00;93275.47;2114291;28;20031;-83
2022/01/03 02:01:07;;;;;;;4.60;1.02;;;;;;;7.72;100.00;93266.47;2110126;28;20488;-84
2022/01/03 02:02:09;;;;;;;;;;;;;;;7.69;100.00;93272.59;2099298;28;20031;-82
2022/01/03 02:03:17;;;;;;;6.63;1.13;;;;;;;7.73;100.00;93266.09;2097930;28;20348;-83
2022/01/03 02:04:48;;;;;;;6.18;1.70;;;;;;;7.83;100.00;93267.91;2100975;28;20585;-83
2022/01/03 02:06:22;;;;;;;10.25;1.40;;;;;;;7.55;100.00;93276.09;2097546;28;20024;-83
2022/01/03 02:07:35;;;;;;;8.48;1.30;;;;;;;7.41;100.00;93273.56;2092877;28;20114;-85
2022/01/03 02:10:05;;;;;;;;;;;;;;;7.47;100.00;93303.91;2122540;27;20188;-86
2022/01/03 02:11:14;;;;;;;4.82;1.33;;;;;;;7.51;100.00;93283.38;2100757;28;20014;-86
2022/01/03 02:12:16;;;;;;;9.38;1.30;;;;;;;7.54;100.00;93285.97;2081020;28;20036;-86
2022/01/03 02:13:21;;;;;;;6.68;1.83;;;;;;;7.45;100.00;93280.34;2072522;28;20033;-87
2022/01/03 02:14:26;;;;;;;9.45;1.25;;;;;;;7.53;100.00;93281.06;2077018;28;20026;-87
2022/01/03 02:15:31;;;;;;;7.15;1.42;;;;;;;7.48;100.00;93263.63;2081713;28;20682;-86
2022/01/03 02:16:33;;;;;;;2.88;1.30;;;;;;;7.70;100.00;93266.88;2080413;28;20525;-87
2022/01/03 02:17:39;;;;;;;5.10;1.50;;;;;;;7.68;100.00;93261.19;2079098;28;20021;-87
2022/01/03 02:18:40;;;;;;;6.70;1.70;;;;;;;7.69;100.00;93272.59;2084510;28;20044;-87
2022/01/03 02:20:03;;;;;;;8.07;1.40;;;;;;;7.47;100.00;93266.69;2079908;28;20018;-86
2022/01/03 02:21:05;;;;;;;6.80;1.58;;;;;;;7.55;100.00;93268.13;2082911;28;20068;-87
2022/01/03 02:22:10;;;;;;;6.57;1.40;;;;;;;7.58;100.00;93275.31;2071864;28;20027;-87
2022/01/03 02:23:12;;;;;;;6.38;1.60;;;;;;;7.47;100.00;93283.41;2097163;28;20736;-87
2022/01/03 02:24:13;;;;;;;7.25;1.55;;;;;;;7.54;100.00;93274.59;2088308;28;20489;-86
2022/01/03 02:25:16;;;;;;;2.97;1.27;;;;;;;7.71;98.24;93308.28;2088174;28;20017;-86
2022/01/03 02:26:16;;;;;;;4.43;2.00;;;;;;;7.65;100.00;93274.53;2088847;28;20024;-86
2022/01/03 02:27:17;;;;;;;8.82;1.80;;;;;;;7.68;98.82;93281.69;2086631;28;20116;-87
2022/01/03 02:28:22;;;;;;;3.63;1.08;;;;;;;7.53;100.00;93275.75;2079846;28;20034;-86
2022/01/03 02:29:23;;;;;;;3.35;1.13;;;;;;;7.67;97.82;93258.91;2080372;28;20026;-87
2022/01/03 02:30:28;;;;;;;4.80;1.50;;;;;;;7.72;95.68;93275.19;2071511;28;20018;-86
2022/01/03 02:31:31;;;;;;;7.40;1.98;;;;;;;7.60;97.56;93274.94;2088505;28;20024;-86
2022/01/03 02:32:32;;;;;;;3.85;1.10;;;;;;;7.53;98.52;93276.50;2088248;28;20017;-88
2022/01/03 02:33:33;;;;;;;9.18;1.35;;;;;;;7.53;99.57;93276.50;2079862;28;20108;-88
2022/01/03 02:34:34;;;;;;;3.60;1.08;;;;;;;7.51;98.47;93262.84;2078731;28;20017;-88
2022/01/03 02:35:38;;;;;;;7.80;1.67;;;;;;;7.44;100.00;93273.53;2092464;28;20557;-87
2022/01/03 02:36:43;;;;;;;7.22;1.58;;;;;;;7.55;97.44;93278.75;2072569;28;20426;-88
2022/01/03 02:37:46;;;;;;;5.72;1.35;;;;;;;7.64;97.14;93291.59;2080903;28;20060;-86
2022/01/03 02:38:47;;;;;;;4.78;1.10;;;;;;;7.54;98.91;93262.03;2098642;28;20072;-87
2022/01/03 02:39:48;;;;;;;6.53;1.52;;;;;;;7.55;98.59;93281.41;2088276;28;20026;-88
2022/01/03 02:40:51;;;;;;;6.47;2.08;;;;;;;7.46;100.00;93287.22;2088032;28;20456;-87
2022/01/03 02:41:52;;;;;;;7.10;1.65;;;;;;;7.58;98.29;93283.31;2096363;28;20075;-89
2022/01/03 02:42:53;;;;;;;5.32;1.50;;;;;;;7.53;98.50;93271.19;2096413;28;20519;-86
2022/01/03 02:43:54;;;;;;;7.43;1.65;;;;;;;7.62;97.12;93265.41;2096315;28;20032;-88
2022/01/03 02:45:08;;;;;;;9.00;1.60;;;;;;;7.44;99.39;93265.56;2096368;28;20134;-87
2022/01/03 02:46:14;;;;;;;6.10;1.70;;;;;;;7.39;100.00;93270.53;2091286;28;20025;-87
2022/01/03 02:47:31;;;;;;;8.43;1.33;;;;;;;7.52;97.45;93255.63;2089419;28;20025;-86
2022/01/03 02:48:33;;;;;;;7.28;1.58;;;;;;;7.63;97.79;93266.16;2098515;28;20025;-87
2022/01/03 02:49:34;;;;;;;7.63;1.77;;;;;;;7.63;95.83;93263.50;2088190;28;20021;-86
2022/01/03 02:50:36;;;;;;;6.85;1.88;;;;;;;7.60;95.49;93264.31;2087936;28;20075;-87
2022/01/03 02:51:37;;;;;;;4.55;1.50;;;;;;;7.54;95.58;93270.03;2088331;28;20029;-87
2022/01/03 02:52:38;;;;;;;6.95;1.40;;;;;;;7.50;97.77;93256.00;2096070;28;20028;-87
2022/01/03 02:53:40;;;;;;;5.35;1.23;;;;;;;7.45;97.62;93258.31;2083844;28;20025;-87
2022/01/03 02:54:41;;;;;;;8.40;1.27;;;;;;;7.42;97.38;93259.88;2087998;28;20029;-87
2022/01/03 02:55:42;;;;;;;3.05;0.80;;;;;;;7.45;96.95;93256.41;2096202;28;20024;-86
2022/01/03 02:56:43;;;;;;;4.25;1.65;;;;;;;7.49;96.54;93269.69;2095975;28;20020;-87
2022/01/03 02:57:49;;;;;;;7.45;1.23;;;;;;;7.50;96.36;93279.19;2091102;28;20045;-88
2022/01/03 02:58:50;;;;;;;4.93;1.35;;;;;;;7.44;97.36;93262.91;2072821;28;20026;-87
2022/01/03 02:59:58;;;;;;;4.35;1.40;;;;;;;7.53;96.32;93251.81;2071604;28;20018;-87
2022/01/03 03:01:00;;;;;;;7.85;1.75;;;;;;;7.62;94.86;93254.03;2088562;28;20112;-85
2022/01/03 03:02:13;;;;;;;6.88;1.42;;;;;;;7.38;96.23;93237.13;2095205;28;20021;-86
2022/01/03 03:03:16;;;;;;;7.28;1.42;;;;;;;7.39;97.67;93250.03;2097875;28;20111;-85
2022/01/03 03:04:17;;;;;;;7.28;1.70;;;;;;;7.22;100.00;93246.34;2082570;28;20113;-86
2022/01/03 03:05:22;;;;;;;6.65;1.35;;;;;;;7.20;100.00;93261.94;2079771;28;20026;-86
2022/01/03 03:06:24;;;;;;;5.18;1.45;;;;;;;7.21;99.25;93260.03;2080479;28;20594;-86
2022/01/03 03:07:29;;;;;;;6.03;1.50;;;;;;;7.29;98.47;93245.53;2087916;28;20087;-87
2022/01/03 03:08:30;;;;;;;16.65;1.52;;;;;;;7.38;97.07;93261.81;2088568;28;20060;-86
2022/01/03 03:09:31;;;;;;;7.63;1.40;;;;;;;7.53;94.60;93255.22;2087656;28;20028;-86
2022/01/03 03:10:32;;;;;;;5.10;1.27;;;;;;;7.53;94.96;93270.44;2087893;28;20033;-87
2022/01/03 03:11:38;;;;;;;5.05;1.30;;;;;;;7.42;96.02;93267.06;2087883;28;20088;-86
2022/01/03 03:12:40;;;;;;;8.85;1.73;;;;;;;7.36;97.13;93264.09;2080009;28;20741;-86
2022/01/03 03:13:41;;;;;;;5.78;1.70;;;;;;;7.37;96.80;93240.91;2079311;28;20033;-86
2022/01/03 03:14:42;;;;;;;4.80;1.48;;;;;;;7.41;96.79;93260.25;2079618;28;20034;-86
2022/01/03 03:15:43;;;;;;;4.32;1.30;;;;;;;7.47;96.43;93261.38;2071366;28;20474;-86
2022/01/03 03:16:46;;;;;;;8.25;1.60;;;;;;;7.44;96.12;93278.84;2072790;28;20038;-85
2022/01/03 03:17:47;;;;;;;7.57;1.10;;;;;;;7.47;94.96;93264.78;2089005;28;20017;-86
2022/01/03 03:18:49;;;;;;;1.95;0.90;;;;;;;7.53;94.48;93276.50;2087863;28;20029;-86
2022/01/03 03:19:57;;;;;;;6.32;1.20;;;;;;;7.43;95.99;93282.66;2079451;28;20053;-87
2022/01/03 03:20:58;;;;;;;5.03;1.48;;;;;;;7.54;93.76;93261.28;2086551;28;20033;-87
2022/01/03 03:21:59;;;;;;;7.95;1.60;;;;;;;7.49;95.11;93281.09;2082349;28;20049;-87
2022/01/03 03:23:01;;;;;;;5.35;1.08;;;;;;;7.47;94.71;93264.03;2073947;28;20112;-86
2022/01/03 03:24:02;;;;;;;4.63;1.08;;;;;;;7.48;94.77;93268.94;2079109;28;20786;-86
2022/01/03 03:25:09;;;;;;;6.40;1.40;;;;;;;7.37;96.32;93270.91;2080530;28;20026;-88
2022/01/03 03:26:13;;;;;;;6.03;1.55;;;;;;;7.48;95.21;93271.59;2075794;28;20022;-85
2022/01/03 03:27:16;;;;;;;7.15;1.42;;;;;;;7.43;95.46;93280.00;2073231;28;20033;-87
2022/01/03 03:28:18;;;;;;;6.20;1.50;;;;;;;7.35;95.88;93270.56;2066226;28;20022;-87
2022/01/03 03:29:19;;;;;;;7.13;1.33;;;;;;;7.41;94.99;93278.88;2065931;28;20868;-87
2022/01/03 03:30:36;;;;;;;6.38;1.42;;;;;;;7.32;98.31;93276.66;2058021;28;20117;-86
2022/01/03 03:31:48;;;;;;;4.78;1.05;;;;;;;7.33;96.50;93275.50;2062094;28;20042;-86
2022/01/03 03:32:56;;;;;;;6.03;1.35;;;;;;;7.26;96.74;93273.66;2060870;28;20049;-88
2022/01/03 03:33:59;;;;;;;7.65;1.27;;;;;;;7.37;97.55;93273.56;2067637;28;20061;-86
2022/01/03 03:35:00;;;;;;;7.35;1.65;;;;;;;7.42;95.03;93283.03;2066099;28;20026;-86
2022/01/03 03:36:05;;;;;;;4.57;1.30;;;;;;;7.34;97.10;93279.69;2057778;28;20031;-86
2022/01/03 03:37:07;;;;;;;5.75;1.20;;;;;;;7.20;97.77;93272.56;2058807;28;20027;-85
2022/01/03 03:38:09;;;;;;;8.55;1.20;;;;;;;7.23;98.13;93281.66;2058087;28;20026;-86
2022/01/03 03:39:13;;;;;;;6.53;2.53;;;;;;;7.28;99.12;93279.31;2066022;28;20022;-87
2022/01/03 03:40:16;;;;;;;8.57;1.50;;;;;;;7.19;99.22;93288.88;2083388;28;20021;-87
2022/01/03 03:41:17;;;;;;;10.63;1.60;;;;;;;7.16;98.70;93281.72;2085332;28;20511;-86
2022/01/03 03:42:19;;;;;;;4.75;1.17;;;;;;;7.16;99.60;93284.38;2073657;28;20540;-87
2022/01/03 03:43:20;;;;;;;7.15;1.52;;;;;;;7.55;95.13;93278.75;2065918;28;20033;-86
2022/01/03 03:44:21;;;;;;;6.97;1.63;;;;;;;7.33;96.26;93267.53;2057806;28;20444;-87
2022/01/03 03:45:23;;;;;;;6.15;1.30;;;;;;;7.29;97.57;93274.78;2057733;28;20023;-87
2022/01/03 03:46:24;;;;;;;9.25;1.92;;;;;;;7.31;97.18;93272.47;2057890;28;20023;-86
2022/01/03 03:47:25;;;;;;;9.43;1.40;;;;;;;7.18;99.38;93271.44;2079874;28;20025;-87
2022/01/03 03:48:26;;;;;;;3.45;1.40;;;;;;;7.29;96.87;93267.56;2076068;28;20054;-86
2022/01/03 03:49:26;;;;;;;6.75;1.27;;;;;;;7.34;96.89;93279.69;2073829;28;20021;-86
2022/01/03 03:50:28;;;;;;;8.48;1.55;;;;;;;7.37;95.83;93270.91;2073835;28;20033;-86
2022/01/03 03:51:29;;;;;;;6.28;1.40;;;;;;;7.36;96.13;93264.09;2073727;28;20707;-88
2022/01/03 03:52:34;;;;;;;10.60;2.20;;;;;;;7.39;96.24;93268.63;2074061;28;20030;-86
2022/01/03 03:53:36;;;;;;;6.88;1.65;;;;;;;7.34;98.10;93271.72;2074794;28;20026;-87
2022/01/03 03:54:37;;;;;;;8.98;1.70;;;;;;;7.54;95.60;93279.91;2074236;28;20022;-88
2022/01/03 03:55:38;;;;;;;3.97;1.25;;;;;;;7.47;95.67;93274.66;2082163;28;20060;-87
2022/01/03 03:56:39;;;;;;;4.93;1.30;;;;;;;7.40;97.03;93280.78;2082031;28;20029;-88
2022/01/03 03:57:41;;;;;;;9.13;1.75;;;;;;;7.39;96.46;93273.94;2077403;28;20030;-87
2022/01/03 03:58:43;;;;;;;9.43;2.03;;;;;;;7.37;96.59;93267.50;2074230;28;20022;-87
2022/01/03 03:59:44;;;;;;;5.60;1.30;;;;;;;7.39;96.01;93265.97;2069232;28;20046;-87
2022/01/03 04:00:45;;;;;;;5.50;1.38;;;;;;;7.34;96.98;93263.72;2073707;28;20029;-87
2022/01/03 04:01:46;;;;;;;2.45;1.00;;;;;;;7.15;100.00;93257.00;2066148;28;20535;-88
2022/01/03 04:02:47;;;;;;;6.20;1.40;;;;;;;7.02;100.00;93263.94;2073705;28;20025;-86
2022/01/03 04:03:47;;;;;;;11.07;1.80;;;;;;;7.11;99.61;93260.84;2065560;28;20085;-86
2022/01/03 04:04:49;;;;;;;5.38;1.10;;;;;;;7.25;96.64;93266.84;2065692;28;20089;-86
2022/01/03 04:05:50;;;;;;;10.52;1.73;;;;;;;7.24;98.92;93261.88;2073936;28;20642;-87
2022/01/03 04:06:51;;;;;;;10.15;2.10;;;;;;;7.08;100.00;93251.75;2073662;28;20053;-87
2022/01/03 04:07:52;;;;;;;6.43;1.67;;;;;;;7.16;99.09;93255.13;2065529;28;20022;-88
2022/01/03 04:08:53;;;;;;;6.00;1.48;;;;;;;7.03;100.00;93257.50;2066919;28;20383;-87
2022/01/03 04:09:54;;;;;;;6.00;1.17;;;;;;;6.96;100.00;93260.94;2081647;28;20046;-87
2022/01/03 04:10:55;;;;;;;6.20;1.23;;;;;;;7.09;99.61;93255.16;2081678;28;20079;-88
2022/01/03 04:11:56;;;;;;;6.40;1.65;;;;;;;7.11;100.00;93260.84;2081868;28;20041;-88
2022/01/03 04:12:57;;;;;;;6.47;1.40;;;;;;;6.99;100.00;93262.06;2073726;28;20060;-86
2022/01/03 04:14:07;;;;;;;6.75;1.52;;;;;;;7.06;99.41;93264.66;2065592;28;20104;-85
2022/01/03 04:15:09;;;;;;;4.57;1.20;;;;;;;7.11;99.93;93252.88;2068168;28;20029;-86
2022/01/03 04:16:11;;;;;;;6.90;1.40;;;;;;;7.09;98.80;93255.91;2082246;28;20553;-87
2022/01/03 04:17:12;;;;;;;9.80;1.40;;;;;;;7.15;99.30;93245.63;2081759;28;20061;-88
2022/01/03 04:18:13;;;;;;;4.55;1.10;;;;;;;7.14;98.32;93262.72;2073786;28;20037;-86
2022/01/03 04:19:14;;;;;;;6.85;1.60;;;;;;;7.29;96.02;93250.88;2081617;28;20033;-87
2022/01/03 04:20:17;;;;;;;6.80;1.42;;;;;;;7.30;95.43;93252.38;2074191;28;20025;-87
2022/01/03 04:21:19;;;;;;;6.50;1.30;;;;;;;7.30;96.23;93247.81;2066853;28;20470;-87
2022/01/03 04:22:20;;;;;;;6.03;1.45;;;;;;;7.24;96.35;93252.03;2076678;28;20030;-86
2022/01/03 04:23:21;;;;;;;4.60;1.55;;;;;;;7.07;98.49;93245.69;2089844;28;20023;-87
2022/01/03 04:24:22;;;;;;;7.35;1.67;;;;;;;7.24;96.38;93253.91;2081576;28;20176;-86
2022/01/03 04:25:23;;;;;;;7.68;1.25;;;;;;;7.10;99.69;93241.47;2073713;28;20022;-90
2022/01/03 04:26:24;;;;;;;8.68;1.60;;;;;;;7.19;97.84;93249.00;2073549;28;20057;-86
2022/01/03 04:27:26;;;;;;;4.10;1.40;;;;;;;7.10;99.01;93230.09;2073125;28;20068;-87
2022/01/03 04:28:29;;;;;;;5.18;1.30;;;;;;;6.99;99.74;93232.84;2073723;28;20470;-86
2022/01/03 04:29:37;;;;;;;12.68;1.70;;;;;;;6.90;100.00;93233.25;2074349;28;20109;-86
2022/01/03 04:30:42;;;;;;;4.68;1.20;;;;;;;6.87;100.00;93236.69;2075037;28;20121;-87
2022/01/03 04:31:49;;;;;;;5.30;0.93;;;;;;;6.94;100.00;93235.91;2081868;28;20025;-87
2022/01/03 04:32:50;;;;;;;6.43;1.27;;;;;;;7.01;100.00;93241.16;2065991;28;20030;-86
2022/01/03 04:33:51;;;;;;;11.45;1.20;;;;;;;6.85;100.00;93230.25;2065373;28;20038;-86
2022/01/03 04:34:54;;;;;;;6.65;1.38;;;;;;;6.96;100.00;93237.00;2066973;28;20571;-86
2022/01/03 04:35:55;;;;;;;6.30;1.48;;;;;;;7.11;99.56;93240.31;2073700;28;20030;-86
2022/01/03 04:36:56;;;;;;;10.20;2.13;;;;;;;7.14;100.00;93225.50;2065265;28;20539;-85
2022/01/03 04:37:57;;;;;;;6.20;1.30;;;;;;;7.16;97.86;93225.91;2073525;28;20117;-86
2022/01/03 04:38:58;;;;;;;7.25;1.27;;;;;;;7.14;98.89;93220.19;2073420;28;20029;-86
2022/01/03 04:39:59;;;;;;;10.18;1.73;;;;;;;7.05;98.80;93226.69;2065419;28;20138;-86
2022/01/03 04:41:00;;;;;;;7.18;1.38;;;;;;;6.99;98.91;93222.97;2065263;28;20026;-86
2022/01/03 04:42:01;;;;;;;6.97;1.60;;;;;;;6.99;99.93;93228.28;2057700;28;20031;-86
2022/01/03 04:43:03;;;;;;;6.82;1.50;;;;;;;7.05;99.97;93225.94;2071206;28;20025;-87
2022/01/03 04:44:07;;;;;;;8.48;1.67;;;;;;;7.11;98.12;93227.03;2089757;28;20355;-86
2022/01/03 04:45:08;;;;;;;12.25;1.83;;;;;;;7.05;98.72;93239.25;2085472;28;20091;-87
2022/01/03 04:46:10;;;;;;;7.10;1.50;;;;;;;7.01;99.17;93238.50;2065290;28;20427;-87
2022/01/03 04:47:11;;;;;;;6.28;1.30;;;;;;;7.18;96.88;93234.22;2073328;28;20030;-87
2022/01/03 04:48:12;;;;;;;6.10;1.63;;;;;;;7.07;98.11;93240.38;2065296;28;20487;-86
2022/01/03 04:49:13;;;;;;;8.88;1.50;;;;;;;6.97;99.76;93235.09;2073346;28;20026;-85
2022/01/03 04:50:15;;;;;;;10.93;1.63;;;;;;;7.09;97.60;93229.34;2074465;28;20574;-86
2022/01/03 04:51:16;;;;;;;5.45;1.55;;;;;;;7.10;98.61;93227.44;2081527;28;20029;-86
2022/01/03 04:52:17;;;;;;;5.43;1.52;;;;;;;7.00;98.80;93219.16;2081301;28;20075;-86
2022/01/03 04:53:25;;;;;;;7.70;1.45;;;;;;;7.02;98.03;93216.88;2081544;28;20475;-87
2022/01/03 04:54:28;;;;;;;9.60;2.28;;;;;;;6.98;98.73;93218.00;2075156;28;20390;-87
2022/01/03 04:55:30;;;;;;;3.83;1.00;;;;;;;6.97;98.30;93219.16;2073827;28;20022;-88
2022/01/03 04:56:33;;;;;;;10.27;1.58;;;;;;;6.85;99.28;93211.66;2072955;28;20076;-88
2022/01/03 04:57:34;;;;;;;8.20;1.40;;;;;;;6.87;99.50;93212.78;2079317;28;20021;-86
2022/01/03 04:58:35;;;;;;;11.23;2.05;;;;;;;6.76;100.00;93218.16;2079711;28;20109;-86
2022/01/03 04:59:36;;;;;;;7.60;1.55;;;;;;;6.77;100.00;93210.94;2083816;28;20100;-88
2022/01/03 05:00:38;;;;;;;4.82;1.00;;;;;;;6.71;100.00;93209.84;2075507;28;20532;-87
2022/01/03 05:01:39;;;;;;;8.15;1.70;;;;;;;6.75;100.00;93215.88;2076777;28;20025;-88
2022/01/03 05:02:40;;;;;;;7.93;1.65;;;;;;;6.78;100.00;93210.56;2081464;28;20017;-86
2022/01/03 05:03:41;;;;;;;8.32;1.60;;;;;;;6.77;99.92;93213.59;2073182;28;20104;-86
2022/01/03 05:04:42;;;;;;;11.00;1.65;;;;;;;6.87;98.59;93212.78;2073418;28;20084;-86
2022/01/03 05:05:43;;;;;;;8.27;1.80;;;;;;;6.99;98.09;93214.97;2073257;28;20025;-87
2022/01/03 05:06:44;;;;;;;13.23;1.85;;;;;;;6.95;99.44;93219.56;2073216;28;20521;-86
2022/01/03 05:07:46;;;;;;;11.20;1.60;;;;;;;6.84;100.00;93215.44;2080615;28;20025;-86
2022/01/03 05:08:47;;;;;;;9.82;1.35;;;;;;;6.92;98.70;93215.03;2083166;28;20095;-87
2022/01/03 05:09:48;;;;;;;8.82;1.25;;;;;;;6.86;99.53;93219.25;2080124;28;20053;-87
2022/01/03 05:10:49;;;;;;;5.57;1.40;;;;;;;6.73;100.00;93220.84;2070160;28;20694;-86
2022/01/03 05:11:50;;;;;;;5.05;1.35;;;;;;;6.69;100.00;93209.47;2073017;28;20116;-86
2022/01/03 05:12:51;;;;;;;6.72;1.25;;;;;;;6.70;100.00;93210.97;2089561;28;20021;-86
2022/01/03 05:13:52;;;;;;;7.20;1.42;;;;;;;6.86;100.00;93197.22;2073337;28;20026;-86